Time;durP1;ratioP1;P1;durP2;ratioP2;P2;SDS_P1;SDS_P2;PMS_P1;PMS_P2;Temp;Humidity;BMP_temperature;BMP_pressure;BME280_temperature;BME280_humidity;BME280_pressure;Samples;Min_cycle;Max_cycle;Signal;HPM_P1;HPM_P2
2022/04/19 00:01:21;;;;;;;10.27;6.67;;;11.10;78.20;;;;;;5133653;28;20300;-73
2022/04/19 00:03:46;;;;;;;8.83;5.90;;;11.10;79.90;;;;;;5133894;28;20047;-73
2022/04/19 00:06:12;;;;;;;10.70;6.03;;;11.00;80.90;;;;;;5133732;28;20095;-73
2022/04/19 00:08:38;;;;;;;8.27;5.70;;;11.00;80.60;;;;;;5132632;28;20038;-73
2022/04/19 00:11:04;;;;;;;9.30;5.63;;;11.00;81.50;;;;;;5133743;27;20490;-73
2022/04/19 00:13:30;;;;;;;8.13;5.33;;;10.90;82.50;;;;;;5133846;28;20107;-73
2022/04/19 00:15:57;;;;;;;8.30;5.50;;;10.90;82.60;;;;;;5133074;28;20417;-73
2022/04/19 00:18:23;;;;;;;9.97;5.60;;;10.90;83.10;;;;;;5133543;27;20307;-74
2022/04/19 00:20:49;;;;;;;8.60;5.60;;;10.80;80.80;;;;;;5133872;28;20757;-73
2022/04/19 00:23:16;;;;;;;8.30;5.43;;;10.80;76.80;;;;;;5133525;27;20043;-74
2022/04/19 00:25:43;;;;;;;12.23;5.77;;;10.80;76.90;;;;;;5133691;27;20284;-74
2022/04/19 00:28:09;;;;;;;8.33;6.03;;;10.80;79.10;;;;;;5133462;27;20312;-73
2022/04/19 00:30:35;;;;;;;8.53;6.10;;;10.80;80.30;;;;;;5133631;27;20283;-74
2022/04/19 00:33:01;;;;;;;9.57;5.93;;;10.80;81.20;;;;;;5133698;27;20833;-74
2022/04/19 00:35:28;;;;;;;10.40;6.00;;;10.70;82.20;;;;;;5133442;27;20120;-73
2022/04/19 00:37:54;;;;;;;10.73;6.43;;;10.70;83.60;;;;;;5133713;27;20105;-73
2022/04/19 00:40:20;;;;;;;10.00;6.13;;;10.70;84.90;;;;;;5133342;27;20304;-73
2022/04/19 00:42:47;;;;;;;7.67;5.93;;;10.60;85.50;;;;;;5133412;27;20303;-73
2022/04/19 00:45:13;;;;;;;9.03;6.17;;;10.60;86.60;;;;;;5133347;27;20047;-73
2022/04/19 00:47:39;;;;;;;8.77;6.07;;;10.50;87.60;;;;;;5132535;28;20618;-73
2022/04/19 00:50:07;;;;;;;8.60;5.80;;;10.60;88.40;;;;;;5133494;27;20277;-73
2022/04/19 00:52:35;;;;;;;12.23;6.00;;;10.50;89.30;;;;;;5133582;27;20628;-74
2022/04/19 00:55:03;;;;;;;9.40;5.80;;;10.40;90.00;;;;;;5133577;27;20280;-73
2022/04/19 00:57:29;;;;;;;11.53;6.40;;;10.40;90.30;;;;;;5135307;27;20784;-73
2022/04/19 00:59:56;;;;;;;8.20;5.73;;;10.30;90.50;;;;;;5135926;27;20690;-74
2022/04/19 01:02:23;;;;;;;8.70;5.80;;;;;;;;;;5135877;27;20344;-74
2022/04/19 01:04:49;;;;;;;10.70;5.50;;;;;;;;;;5137062;27;20277;-73
2022/04/19 01:07:19;;;;;;;8.90;6.20;;;;;;;;;;5136774;27;20370;-73
2022/04/19 01:09:45;;;;;;;9.10;5.70;;;;;;;;;;5137036;27;20289;-73
2022/04/19 01:14:57;;;;;;;8.70;5.90;;;;;;;;;;5137028;27;20356;-73
2022/04/19 01:17:25;;;;;;;9.93;5.60;;;;;;;;;;5136476;27;20043;-73
2022/04/19 01:19:51;;;;;;;10.70;5.60;;;;;;;;;;5136728;27;20280;-73
2022/04/19 01:22:17;;;;;;;10.17;5.73;;;;;;;;;;5136560;27;20284;-73
2022/04/19 01:24:43;;;;;;;8.73;5.60;;;;;;;;;;5136824;27;20360;-73
2022/04/19 01:27:13;;;;;;;8.20;5.73;;;;;;;;;;5136601;27;20277;-73
2022/04/19 01:29:39;;;;;;;9.70;5.80;;;;;;;;;;5136553;27;20272;-73
2022/04/19 01:32:05;;;;;;;10.00;6.63;;;;;;;;;;5136553;27;20395;-73
2022/04/19 01:34:31;;;;;;;8.65;5.75;;;10.10;93.50;;;;;;5136306;27;20410;-74
2022/04/19 01:36:57;;;;;;;10.63;6.40;;;10.00;94.70;;;;;;5136423;27;20121;-74
2022/04/19 01:42:08;;;;;;;9.80;5.72;;;9.80;95.00;;;;;;5136399;27;20090;-74
2022/04/19 01:44:34;;;;;;;9.60;6.40;;;9.80;95.70;;;;;;5136076;27;20104;-73
2022/04/19 01:47:07;;;;;;;11.57;6.90;;;9.70;96.00;;;;;;5136277;27;20273;-74
2022/04/19 01:49:36;;;;;;;9.17;6.47;;;9.70;97.10;;;;;;5136105;27;20051;-74
2022/04/19 01:52:03;;;;;;;10.20;6.70;;;9.70;97.00;;;;;;5136186;27;20601;-74
2022/04/19 01:54:30;;;;;;;11.38;7.45;;;9.70;96.70;;;;;;5134769;27;20046;-73
2022/04/19 01:56:56;;;;;;;10.00;5.93;;;9.60;96.90;;;;;;5136017;27;20054;-74
2022/04/19 01:59:22;;;;;;;12.50;6.40;;;9.60;97.20;;;;;;5135670;27;20390;-73
2022/04/19 02:01:51;;;;;;;10.23;6.43;;;9.50;97.10;;;;;;5135992;27;20273;-73
2022/04/19 02:04:18;;;;;;;12.02;6.93;;;9.60;97.70;;;;;;5135682;27;20719;-73
2022/04/19 02:06:44;;;;;;;10.27;6.63;;;9.50;97.60;;;;;;5134578;27;20039;-74
2022/04/19 02:09:10;;;;;;;9.48;7.05;;;9.50;97.70;;;;;;5134839;27;20040;-74
2022/04/19 02:11:38;;;;;;;10.83;6.90;;;;;;;;;;5135599;27;20100;-74
2022/04/19 02:14:04;;;;;;;9.77;6.28;;;9.50;96.90;;;;;;5135841;27;20276;-74
2022/04/19 02:16:31;;;;;;;11.48;6.57;;;9.50;97.30;;;;;;5135496;27;20097;-73
2022/04/19 02:18:57;;;;;;;10.90;6.93;;;9.50;97.70;;;;;;5135632;27;20047;-74
2022/04/19 02:21:23;;;;;;;9.00;6.60;;;9.40;98.30;;;;;;5135069;27;20185;-74
2022/04/19 02:23:49;;;;;;;9.93;6.38;;;9.50;99.30;;;;;;5135629;27;20605;-74
2022/04/19 02:26:15;;;;;;;10.40;6.97;;;9.40;99.10;;;;;;5135623;27;20456;-74
2022/04/19 02:28:41;;;;;;;10.03;7.10;;;9.30;99.10;;;;;;5135421;27;20043;-74
2022/04/19 02:31:08;;;;;;;10.17;6.90;;;9.30;99.30;;;;;;5135534;27;20048;-74
2022/04/19 02:33:34;;;;;;;10.95;6.47;;;9.20;99.50;;;;;;5135087;27;20054;-74
2022/04/19 02:36:00;;;;;;;8.33;6.23;;;9.30;99.60;;;;;;5135030;27;20046;-74
2022/04/19 02:38:26;;;;;;;10.20;6.90;;;9.30;99.60;;;;;;5134838;27;20047;-73
2022/04/19 02:40:51;;;;;;;11.53;6.80;;;9.40;99.30;;;;;;5134209;27;20134;-74
2022/04/19 02:43:17;;;;;;;9.47;6.33;;;9.30;98.80;;;;;;5135290;27;20109;-74
2022/04/19 02:45:43;;;;;;;10.03;6.77;;;9.30;99.10;;;;;;5134768;27;20115;-74
2022/04/19 02:48:09;;;;;;;12.33;6.60;;;9.30;99.30;;;;;;5135010;27;20074;-74
2022/04/19 02:50:45;;;;;;;12.20;6.93;;;9.30;99.20;;;;;;5134893;27;20138;-74
2022/04/19 02:53:11;;;;;;;11.55;6.47;;;9.20;99.40;;;;;;5135059;27;20522;-74
2022/04/19 02:55:37;;;;;;;12.68;7.20;;;9.20;98.90;;;;;;5134704;27;20043;-74
2022/04/19 02:58:03;;;;;;;11.93;7.50;;;9.20;98.50;;;;;;5134747;27;20035;-74
2022/04/19 03:00:29;;;;;;;11.35;7.15;;;9.20;99.00;;;;;;5134612;27;20039;-74
2022/04/19 03:02:55;;;;;;;10.10;7.70;;;9.10;99.10;;;;;;5134806;27;20046;-74
2022/04/19 03:05:21;;;;;;;11.13;7.20;;;9.20;99.90;;;;;;5134427;27;20055;-73
2022/04/19 03:07:47;;;;;;;11.48;7.30;;;9.20;99.90;;;;;;5134631;27;20326;-73
2022/04/19 03:10:15;;;;;;;11.65;7.72;;;9.50;99.90;;;;;;5134753;27;20050;-74
2022/04/19 03:12:42;;;;;;;11.80;7.63;;;9.20;99.90;;;;;;5134346;27;20103;-74
2022/04/19 03:15:10;;;;;;;9.18;7.18;;;9.20;99.90;;;;;;5134613;27;20093;-74
2022/04/19 03:17:35;;;;;;;10.75;7.20;;;9.10;99.90;;;;;;5133198;27;20407;-73
2022/04/19 03:20:02;;;;;;;11.33;7.47;;;9.00;99.90;;;;;;5133504;27;20093;-74
2022/04/19 03:27:41;;;;;;;11.68;7.88;;;9.10;99.90;;;;;;5134212;27;20051;-73
2022/04/19 03:27:57;;;;;;;10.57;7.57;;;8.90;99.90;;;;;;5134597;27;20050;-74
2022/04/19 03:30:23;;;;;;;11.90;7.90;;;8.90;99.80;;;;;;5134177;27;20051;-73
2022/04/19 03:32:52;;;;;;;11.97;8.37;;;8.80;99.90;;;;;;5134301;27;20383;-73
2022/04/19 03:35:19;;;;;;;12.88;8.75;;;8.90;99.80;;;;;;5134144;27;20058;-74
2022/04/19 03:37:45;;;;;;;10.57;7.50;;;8.80;99.90;;;;;;5132682;27;20564;-74
2022/04/19 03:40:11;;;;;;;15.17;9.70;;;8.80;99.90;;;;;;5133469;27;20148;-73
2022/04/19 03:42:37;;;;;;;12.50;8.40;;;8.80;99.40;;;;;;5133923;27;20058;-74
2022/04/19 03:45:03;;;;;;;16.27;9.65;;;8.80;98.80;;;;;;5134180;27;20122;-74
2022/04/19 03:47:29;;;;;;;15.73;10.15;;;8.80;98.50;;;;;;5133857;27;20551;-74
2022/04/19 03:49:54;;;;;;;14.50;10.17;;;8.70;98.30;;;;;;5134358;27;20130;-74
2022/04/19 03:52:20;;;;;;;15.30;10.50;;;8.70;98.20;;;;;;5134073;27;20127;-74
2022/04/19 03:54:45;;;;;;;14.97;10.00;;;8.70;98.10;;;;;;5133882;27;20054;-73
2022/04/19 03:57:12;;;;;;;16.33;10.27;;;8.70;97.60;;;;;;5133881;28;20035;-74
2022/04/19 03:59:38;;;;;;;16.85;9.68;;;8.70;97.50;;;;;;5133471;27;20479;-74
2022/04/19 04:02:08;;;;;;;15.05;10.02;;;8.70;97.90;;;;;;5134032;27;20104;-74
2022/04/19 04:04:36;;;;;;;15.63;9.40;;;8.70;97.50;;;;;;5133407;27;20509;-74
2022/04/19 04:07:03;;;;;;;13.15;9.57;;;8.60;97.50;;;;;;5133897;27;20054;-74
2022/04/19 04:09:35;;;;;;;16.70;9.88;;;8.60;97.60;;;;;;5133747;27;20051;-73
2022/04/19 04:12:05;;;;;;;14.35;9.75;;;8.60;97.60;;;;;;5134226;27;20051;-74
2022/04/19 04:14:32;;;;;;;15.38;10.05;;;8.60;97.90;;;;;;5133700;27;20043;-74
2022/04/19 04:16:58;;;;;;;14.98;10.18;;;8.50;97.80;;;;;;5133738;27;20054;-74
2022/04/19 04:19:24;;;;;;;14.32;10.25;;;8.50;98.10;;;;;;5115707;28;20043;-74
2022/04/19 04:21:50;;;;;;;14.60;9.53;;;8.50;98.00;;;;;;5133255;27;20050;-74
2022/04/19 04:24:16;;;;;;;16.33;8.90;;;8.50;97.90;;;;;;5133720;28;20126;-74
2022/04/19 04:26:42;;;;;;;17.13;9.47;;;8.50;98.00;;;;;;5133566;27;20164;-74
2022/04/19 04:29:08;;;;;;;13.10;9.27;;;8.50;98.10;;;;;;5133720;27;20036;-74
2022/04/19 04:31:34;;;;;;;13.57;9.10;;;8.50;98.50;;;;;;5135272;27;20043;-73
2022/04/19 04:33:59;;;;;;;14.77;8.80;;;8.40;98.70;;;;;;5137996;27;20127;-74
2022/04/19 04:36:25;;;;;;;14.53;9.30;;;8.40;98.80;;;;;;5137691;27;20126;-74
2022/04/19 04:38:51;;;;;;;15.07;9.07;;;8.50;98.90;;;;;;5136999;27;20471;-73
2022/04/19 04:41:17;;;;;;;14.00;9.48;;;8.50;98.90;;;;;;5137513;27;20047;-74
2022/04/19 04:43:43;;;;;;;16.70;9.70;;;8.40;98.80;;;;;;5137294;27;20050;-74
2022/04/19 04:51:38;;;;;;;14.18;9.23;;;8.40;99.20;;;;;;5137114;27;20054;-73
2022/04/19 04:54:04;;;;;;;14.87;9.53;;;8.50;99.10;;;;;;5137327;27;20047;-74
2022/04/19 04:56:30;;;;;;;13.13;9.35;;;8.40;99.20;;;;;;5137163;27;20050;-72
2022/04/19 04:58:56;;;;;;;17.67;9.87;;;8.50;99.40;;;;;;5137122;27;20047;-74
2022/04/19 05:01:22;;;;;;;14.17;9.63;;;8.50;99.50;;;;;;5137336;27;20050;-74
2022/04/19 05:03:47;;;;;;;16.27;10.33;;;8.50;99.90;;;;;;5137231;27;20115;-73
2022/04/19 05:06:13;;;;;;;14.80;10.33;;;8.50;99.50;;;;;;5137370;27;20046;-73
2022/04/19 05:08:39;;;;;;;16.43;10.67;;;8.50;99.90;;;;;;5136889;27;20043;-73
2022/04/19 05:11:04;;;;;;;16.27;10.73;;;8.50;99.90;;;;;;5137261;27;20080;-74
2022/04/19 05:13:30;;;;;;;14.10;10.23;;;8.60;99.90;;;;;;5136977;27;20455;-74
2022/04/19 05:15:58;;;;;;;17.57;11.47;;;8.60;99.90;;;;;;5136699;27;20043;-74
2022/04/19 05:18:25;;;;;;;14.75;9.45;;;8.60;99.90;;;;;;5136787;27;20069;-74
2022/04/19 05:20:50;;;;;;;14.45;9.25;;;8.70;99.90;;;;;;5135364;27;20051;-73
2022/04/19 05:23:16;;;;;;;17.57;9.77;;;8.70;99.90;;;;;;5136056;27;20559;-75
2022/04/19 05:25:42;;;;;;;17.07;8.83;;;8.70;99.90;;;;;;5136500;27;20130;-74
2022/04/19 05:28:07;;;;;;;14.80;9.43;;;8.80;99.80;;;;;;5136651;27;20039;-74
2022/04/19 05:30:33;;;;;;;16.03;9.60;;;8.80;99.90;;;;;;5136702;27;20371;-73
2022/04/19 05:32:59;;;;;;;14.47;9.27;;;8.90;99.80;;;;;;5136619;27;20398;-73
2022/04/19 05:35:24;;;;;;;14.97;10.37;;;8.90;99.70;;;;;;5136689;27;20051;-74
2022/04/19 05:37:51;;;;;;;20.83;9.97;;;9.00;99.80;;;;;;5135856;27;20051;-74
2022/04/19 05:40:16;;;;;;;18.98;9.23;;;9.00;99.80;;;;;;5136480;27;20051;-74
2022/04/19 05:42:42;;;;;;;15.40;9.97;;;9.00;99.70;;;;;;5134274;27;20474;-74
2022/04/19 05:45:08;;;;;;;15.23;9.60;;;9.10;99.40;;;;;;5136830;27;20482;-74
2022/04/19 05:47:34;;;;;;;11.82;8.80;;;9.10;99.30;;;;;;5136188;27;20532;-74
2022/04/19 05:49:59;;;;;;;15.20;8.83;;;9.20;99.30;;;;;;5136298;27;20137;-74
2022/04/19 05:52:25;;;;;;;14.63;9.23;;;9.20;99.10;;;;;;5136286;27;20126;-73
2022/04/19 05:54:51;;;;;;;13.03;8.80;;;9.30;99.00;;;;;;5135941;27;20039;-74
2022/04/19 05:57:17;;;;;;;13.80;8.97;;;9.40;98.80;;;;;;5135322;27;20043;-74
2022/04/19 05:59:42;;;;;;;13.63;9.53;;;9.60;99.50;;;;;;5135963;27;20079;-73
2022/04/19 06:04:53;;;;;;;11.55;7.95;;;;;;;;;;5135762;27;20054;-73
2022/04/19 06:07:23;;;;;;;12.17;8.37;;;13.70;74.40;;;;;;5135932;27;20172;-74
2022/04/19 06:09:49;;;;;;;10.27;7.07;;;;;;;;;;5135698;27;20285;-73
2022/04/19 06:12:15;;;;;;;11.33;7.50;;;15.80;74.60;;;;;;5134797;27;20289;-74
2022/04/19 06:14:41;;;;;;;11.03;7.93;;;16.60;64.70;;;;;;5135625;27;20277;-73
2022/04/19 06:17:07;;;;;;;10.83;7.67;;;17.30;60.20;;;;;;5135664;27;20276;-74
2022/04/19 06:19:33;;;;;;;12.93;7.43;;;;;;;;;;5135693;27;20280;-74
2022/04/19 06:21:59;;;;;;;9.87;7.13;;;18.90;67.60;;;;;;5134407;27;20387;-74
2022/04/19 06:24:25;;;;;;;11.83;7.50;;;19.20;53.60;;;;;;5134587;27;20281;-74
2022/04/19 06:26:51;;;;;;;11.37;7.53;;;;;;;;;;5135335;27;20055;-74
2022/04/19 06:29:18;;;;;;;11.33;7.43;;;;;;;;;;5135442;27;20284;-74
2022/04/19 06:31:44;;;;;;;10.97;7.23;;;;;;;;;;5135272;27;20372;-74
2022/04/19 06:34:11;;;;;;;11.43;7.57;;;20.20;74.80;;;;;;5135661;27;20280;-74
2022/04/19 06:36:37;;;;;;;10.23;7.30;;;20.50;46.20;;;;;;5135348;27;20047;-74
2022/04/19 06:39:03;;;;;;;12.97;7.97;;;20.90;45.10;;;;;;5135188;27;20058;-74
2022/04/19 06:41:29;;;;;;;10.40;7.03;;;21.20;44.50;;;;;;5135431;27;20402;-74
2022/04/19 06:43:57;;;;;;;11.63;7.90;;;21.40;43.20;;;;;;5135021;27;20120;-74
2022/04/19 06:46:26;;;;;;;10.73;8.23;;;21.60;42.60;;;;;;5135002;27;20506;-74
2022/04/19 06:48:56;;;;;;;10.00;8.07;;;21.80;42.50;;;;;;5134932;27;20118;-74
2022/04/19 06:51:22;;;;;;;9.53;7.57;;;22.10;41.80;;;;;;5135191;27;20086;-74
2022/04/19 06:53:48;;;;;;;10.10;8.10;;;;;;;;;;5133920;27;20046;-74
2022/04/19 06:56:18;;;;;;;10.10;8.00;;;22.20;39.80;;;;;;5133677;27;20051;-74
2022/04/19 06:58:44;;;;;;;9.37;7.63;;;22.20;39.90;;;;;;5134599;27;20055;-74
2022/04/19 07:01:11;;;;;;;9.10;7.90;;;21.90;39.90;;;;;;5134865;27;20232;-74
2022/04/19 07:03:37;;;;;;;11.40;8.57;;;;;;;;;;5134837;27;20100;-74
2022/04/19 07:06:05;;;;;;;10.80;8.23;;;;;;;;;;5134564;27;20054;-74
2022/04/19 07:08:32;;;;;;;11.40;8.10;;;;;;;;;;5134390;27;20499;-74
2022/04/19 07:11:00;;;;;;;13.90;8.63;;;;;;;;;;5134436;27;20129;-73
2022/04/19 07:13:27;;;;;;;10.87;9.27;;;23.00;37.70;;;;;;5134756;27;20055;-75
2022/04/19 07:15:53;;;;;;;10.70;7.90;;;23.10;39.00;;;;;;5134495;27;20089;-74
2022/04/19 07:18:23;;;;;;;11.53;8.33;;;23.40;53.70;;;;;;5134669;27;20467;-74
2022/04/19 07:26:38;;;;;;;11.15;8.82;;;24.20;37.20;;;;;;5134388;27;20051;-74
2022/04/19 07:29:10;;;;;;;12.30;8.27;;;24.50;39.50;;;;;;5134225;27;20043;-74
2022/04/19 07:31:40;;;;;;;12.67;8.93;;;24.40;36.80;;;;;;5133197;27;20051;-74
2022/04/19 07:34:06;;;;;;;10.87;8.43;;;24.30;36.50;;;;;;5134113;27;20043;-74
2022/04/19 07:36:35;;;;;;;10.73;7.90;;;;;;;;;;5133557;27;20133;-74
2022/04/19 07:39:03;;;;;;;9.80;8.00;;;23.90;36.00;;;;;;5134266;27;20055;-74
2022/04/19 07:41:30;;;;;;;10.60;8.60;;;23.70;37.30;;;;;;5134267;27;20051;-74
2022/04/19 07:43:56;;;;;;;12.60;7.83;;;24.20;37.10;;;;;;5134096;27;20065;-74
2022/04/19 07:46:22;;;;;;;10.07;8.00;;;24.80;36.40;;;;;;5134210;27;20050;-73
2022/04/19 07:48:51;;;;;;;8.97;7.80;;;;;;;;;;5133954;27;20066;-73
2022/04/19 07:51:18;;;;;;;9.63;7.67;;;25.00;34.70;;;;;;5134093;27;20534;-73
2022/04/19 07:53:44;;;;;;;9.90;8.50;;;24.30;36.10;;;;;;5133763;27;20047;-73
2022/04/19 07:56:10;;;;;;;9.43;7.77;;;23.60;36.70;;;;;;5133930;27;20043;-73
2022/04/19 07:58:36;;;;;;;10.90;8.20;;;;;;;;;;5133912;27;20039;-73
2022/04/19 08:01:02;;;;;;;10.37;7.80;;;;;;;;;;5133680;28;20051;-73
2022/04/19 08:03:28;;;;;;;11.10;7.90;;;;;;;;;;5133974;28;20079;-73
2022/04/19 08:05:54;;;;;;;11.13;8.37;;;;;;;;;;5135598;27;20550;-73
2022/04/19 08:08:21;;;;;;;13.90;8.80;;;19.90;78.40;;;;;;5138428;27;20039;-73
2022/04/19 08:10:50;;;;;;;10.50;7.57;;;19.30;41.80;;;;;;5138180;27;20058;-73
2022/04/19 08:13:16;;;;;;;12.83;8.20;;;18.70;42.80;;;;;;5138158;27;20421;-73
2022/04/19 08:15:43;;;;;;;11.07;7.63;;;;;;;;;;5137776;27;20487;-73
2022/04/19 08:18:13;;;;;;;12.17;7.40;;;;;;;;;;5137678;27;20050;-73
2022/04/19 08:20:39;;;;;;;11.77;7.50;;;17.90;44.70;;;;;;5138173;27;20092;-73
2022/04/19 08:23:07;;;;;;;10.70;7.13;;;17.60;46.40;;;;;;5137472;27;20043;-73
2022/04/19 08:25:34;;;;;;;10.30;6.10;;;17.50;58.20;;;;;;5137924;27;20051;-73
2022/04/19 08:28:00;;;;;;;11.37;7.27;;;;;;;;;;5137321;27;20047;-73
2022/04/19 08:30:26;;;;;;;10.10;6.53;;;17.30;46.70;;;;;;5138000;27;20039;-73
2022/04/19 08:32:52;;;;;;;8.97;5.90;;;17.30;47.40;;;;;;5137333;27;20046;-73
2022/04/19 08:35:18;;;;;;;10.37;6.20;;;17.30;48.00;;;;;;5137792;27;20046;-73
2022/04/19 08:37:43;;;;;;;12.23;5.90;;;17.30;48.10;;;;;;5136180;27;20062;-73
2022/04/19 08:40:11;;;;;;;9.07;6.23;;;17.30;48.50;;;;;;5137467;27;20047;-73
2022/04/19 08:42:38;;;;;;;9.33;5.97;;;17.30;48.70;;;;;;5137616;27;20047;-74
2022/04/19 08:45:06;;;;;;;9.67;5.90;;;17.20;48.80;;;;;;5137322;27;20442;-73
2022/04/19 08:47:53;;;;;;;9.67;5.03;;;17.00;49.20;;;;;;5137475;27;20047;-73
2022/04/19 08:50:21;;;;;;;9.07;5.47;;;16.90;49.60;;;;;;5137091;27;20461;-73
2022/04/19 08:52:47;;;;;;;12.43;5.17;;;16.90;49.40;;;;;;5136887;27;20043;-73
2022/04/19 08:57:58;;;;;;;6.38;3.90;;;16.80;48.50;;;;;;5137046;27;20187;-73
2022/04/19 09:00:24;;;;;;;6.87;4.13;;;16.80;48.90;;;;;;5136064;27;20054;-73
2022/04/19 09:02:51;;;;;;;7.00;3.77;;;;;;;;;;5137297;27;20053;-73
2022/04/19 09:05:19;;;;;;;7.27;3.60;;;;;;;;;;5136928;27;20284;-73
2022/04/19 09:07:46;;;;;;;6.30;3.70;;;;;;;;;;5137325;27;20445;-73
2022/04/19 09:10:16;;;;;;;6.00;3.60;;;;;;;;;;5136913;27;20272;-73
2022/04/19 09:12:59;;;;;;;7.07;3.67;;;;;;;;;;5137295;27;20276;-73
2022/04/19 09:15:31;;;;;;;6.20;3.37;;;;;;;;;;5136853;27;20288;-73
2022/04/19 09:17:57;;;;;;;6.23;3.67;;;;;;;;;;5135462;27;20380;-73
2022/04/19 09:20:23;;;;;;;8.47;3.90;;;;;;;;;;5135541;27;20277;-73
2022/04/19 09:23:00;;;;;;;8.33;4.17;;;;;;;;;;5136664;27;20272;-73
2022/04/19 09:25:26;;;;;;;7.47;3.93;;;;;;;;;;5136722;27;20416;-73
2022/04/19 09:27:54;;;;;;;7.87;4.00;;;16.60;86.70;;;;;;5136883;27;20619;-73
2022/04/19 09:30:32;;;;;;;9.60;4.27;;;16.50;49.70;;;;;;5136250;27;20360;-73
2022/04/19 09:33:03;;;;;;;8.63;4.93;;;16.60;63.10;;;;;;5136808;27;20355;-73
2022/04/19 09:35:30;;;;;;;8.27;4.13;;;16.70;55.00;;;;;;5136813;27;20752;-73
2022/04/19 09:37:56;;;;;;;9.27;4.70;;;16.60;49.70;;;;;;5136158;27;20444;-73
2022/04/19 09:40:36;;;;;;;8.23;4.83;;;16.60;50.00;;;;;;5136139;27;20315;-73
2022/04/19 09:43:24;;;;;;;9.63;4.37;;;16.70;50.60;;;;;;5136399;27;20047;-73
2022/04/19 09:45:54;;;;;;;9.20;4.03;;;16.70;50.80;;;;;;5136437;27;20364;-73
2022/04/19 09:48:23;;;;;;;8.23;4.57;;;16.60;50.80;;;;;;5136117;27;20710;-73
2022/04/19 09:50:54;;;;;;;5.37;3.50;;;16.70;50.60;;;;;;5136143;27;20760;-73
2022/04/19 09:53:25;;;;;;;7.53;3.60;;;16.70;50.40;;;;;;5135767;27;20823;-73
2022/04/19 09:55:53;;;;;;;6.57;3.33;;;16.60;50.60;;;;;;5135960;27;20756;-73
2022/04/19 09:58:19;;;;;;;8.27;3.33;;;16.60;50.10;;;;;;5135882;27;20293;-74
2022/04/19 10:00:47;;;;;;;3.70;2.00;;;16.50;50.20;;;;;;5135222;27;20598;-73
2022/04/19 10:08:57;;;;;;;6.10;2.60;;;16.50;49.60;;;;;;5097561;27;20294;-73
2022/04/19 10:11:26;;;;;;;6.23;2.60;;;16.40;49.40;;;;;;5135781;27;20051;-73
2022/04/19 10:13:54;;;;;;;2.77;1.10;;;16.50;49.30;;;;;;5134881;27;20338;-73
2022/04/19 10:16:21;;;;;;;3.73;1.20;;;16.60;44.50;;;;;;5135591;27;20272;-73
2022/04/19 10:18:46;;;;;;;3.60;1.70;;;16.60;41.70;;;;;;5135843;27;20285;-73
2022/04/19 10:21:19;;;;;;;4.60;1.90;;;16.60;41.60;;;;;;5135064;27;20280;-73
2022/04/19 10:23:45;;;;;;;3.67;1.60;;;16.50;41.30;;;;;;5134703;27;20462;-73
2022/04/19 10:26:18;;;;;;;3.67;1.60;;;16.40;41.90;;;;;;5135352;27;20283;-73
2022/04/19 10:28:47;;;;;;;3.30;1.63;;;16.40;41.20;;;;;;5135628;27;20280;-73
2022/04/19 10:31:14;;;;;;;3.83;1.60;;;16.50;40.80;;;;;;5135240;27;20309;-73
2022/04/19 10:33:42;;;;;;;3.70;1.77;;;16.50;41.10;;;;;;5135416;27;20299;-73
2022/04/19 10:36:14;;;;;;;7.30;1.93;;;16.50;41.20;;;;;;5135101;27;20360;-73
2022/04/19 10:38:44;;;;;;;4.30;1.83;;;16.50;41.60;;;;;;5135415;27;20301;-73
2022/04/19 10:41:10;;;;;;;3.60;1.70;;;16.50;41.70;;;;;;5134997;27;20276;-73
2022/04/19 10:43:36;;;;;;;6.53;1.70;;;16.60;41.50;;;;;;5135506;27;20272;-74
2022/04/19 10:46:21;;;;;;;3.83;1.30;;;16.50;41.50;;;;;;5135346;27;20046;-74
2022/04/19 10:49:22;;;;;;;4.40;1.83;;;16.50;42.10;;;;;;5134958;27;20547;-74
2022/04/19 10:51:49;;;;;;;4.63;1.90;;;16.60;42.30;;;;;;5134938;27;20054;-73
2022/04/19 10:54:14;;;;;;;5.57;2.20;;;16.70;42.20;;;;;;5134158;27;20281;-73
2022/04/19 10:58:05;;;;;;;6.23;1.80;;;16.70;42.60;;;;;;5135000;27;20284;-73
2022/04/19 11:00:18;;;;;;;5.47;1.83;;;16.60;43.10;;;;;;5134745;27;20047;-73
2022/04/19 11:02:56;;;;;;;4.00;1.53;;;16.60;43.40;;;;;;5135158;27;20310;-73
2022/04/19 11:05:44;;;;;;;3.80;1.67;;;16.60;43.40;;;;;;5133787;27;20628;-73
2022/04/19 11:08:25;;;;;;;5.53;1.80;;;16.60;43.80;;;;;;5133415;27;20296;-73
2022/04/19 11:11:20;;;;;;;3.20;1.63;;;16.60;43.80;;;;;;5133638;27;20277;-73
2022/04/19 11:14:15;;;;;;;3.60;1.75;;;16.60;43.90;;;;;;5134989;27;20313;-74
2022/04/19 11:16:41;;;;;;;3.80;1.73;;;16.70;43.40;;;;;;5134801;27;20051;-73
2022/04/19 11:19:21;;;;;;;4.23;1.67;;;16.70;43.40;;;;;;5133212;27;20728;-73
2022/04/19 11:21:53;;;;;;;4.70;1.80;;;16.80;43.70;;;;;;5134542;27;20047;-73
2022/04/19 11:25:04;;;;;;;3.27;1.40;;;16.70;43.70;;;;;;5134328;27;20762;-74
2022/04/19 11:27:54;;;;;;;2.70;1.27;;;16.80;42.90;;;;;;5130667;27;20337;-73
2022/04/19 11:30:21;;;;;;;3.63;1.47;;;16.70;42.80;;;;;;5134315;27;20281;-73
2022/04/19 11:32:52;;;;;;;3.87;1.70;;;16.70;43.10;;;;;;5134378;27;20276;-73
2022/04/19 11:35:18;;;;;;;4.47;1.77;;;16.60;43.40;;;;;;5134339;27;20783;-73
2022/04/19 11:37:45;;;;;;;6.57;2.00;;;16.60;44.00;;;;;;5132711;27;20304;-73
2022/04/19 11:48:45;;;;;;;4.40;2.13;;;16.60;44.70;;;;;;5134202;27;20322;-73
2022/04/19 11:51:12;;;;;;;5.80;2.10;;;16.70;44.90;;;;;;5134283;27;20050;-74
2022/04/19 11:53:38;;;;;;;4.67;2.20;;;16.80;45.30;;;;;;5133965;27;20695;-73
2022/04/19 11:56:06;;;;;;;4.23;2.23;;;16.70;45.70;;;;;;5134221;27;20273;-73
2022/04/19 11:58:32;;;;;;;5.43;2.37;;;16.70;45.90;;;;;;5133674;27;20395;-73
2022/04/19 12:01:03;;;;;;;5.93;2.67;;;16.70;45.50;;;;;;5134252;27;20277;-73
2022/04/19 12:03:37;;;;;;;5.57;2.97;;;16.70;45.90;;;;;;5132712;28;20273;-73
2022/04/19 12:06:12;;;;;;;9.40;2.67;;;16.60;46.30;;;;;;5134256;27;20269;-73
2022/04/19 12:08:41;;;;;;;5.97;2.33;;;16.80;46.80;;;;;;5132621;28;20326;-73
2022/04/19 12:11:33;;;;;;;5.43;2.47;;;16.80;46.90;;;;;;5133617;27;20473;-73
2022/04/19 12:13:59;;;;;;;6.37;2.03;;;16.90;47.20;;;;;;5163258;27;20287;-74
2022/04/19 12:16:34;;;;;;;7.30;2.60;;;16.90;46.80;;;;;;5133572;28;20277;-73
2022/04/19 12:19:03;;;;;;;4.17;2.40;;;17.00;45.80;;;;;;5134038;27;20048;-74
2022/04/19 12:21:43;;;;;;;6.57;2.77;;;16.90;45.40;;;;;;5132153;28;20768;-73
2022/04/19 12:24:21;;;;;;;5.33;2.87;;;16.90;45.20;;;;;;5133888;27;20679;-74
2022/04/19 12:27:06;;;;;;;4.77;2.50;;;16.90;45.80;;;;;;5134173;27;20285;-73
2022/04/19 12:29:37;;;;;;;6.35;2.85;;;16.80;46.30;;;;;;5133574;27;20283;-73
2022/04/19 12:32:04;;;;;;;5.50;2.80;;;17.00;46.20;;;;;;5133941;27;20047;-73
2022/04/19 12:34:39;;;;;;;6.33;2.47;;;17.00;46.60;;;;;;5133529;27;20273;-73
2022/04/19 12:37:16;;;;;;;6.15;2.50;;;16.90;46.00;;;;;;5133530;27;20277;-73
2022/04/19 12:40:00;;;;;;;4.33;2.13;;;16.90;45.80;;;;;;5133508;27;20058;-73
2022/04/19 12:42:27;;;;;;;5.90;2.57;;;16.90;45.80;;;;;;5132299;28;20277;-73
2022/04/19 12:45:07;;;;;;;4.63;2.40;;;16.90;45.80;;;;;;5133584;27;20273;-74
2022/04/19 12:47:33;;;;;;;5.67;2.10;;;17.10;45.80;;;;;;5132304;28;20756;-73
2022/04/19 12:50:12;;;;;;;5.27;2.87;;;17.10;46.50;;;;;;5133547;27;20284;-74
2022/04/19 12:52:40;;;;;;;6.67;2.83;;;17.20;45.90;;;;;;5135760;27;20640;-73
2022/04/19 12:55:09;;;;;;;6.33;2.33;;;17.10;46.10;;;;;;5137350;27;20281;-74
2022/04/19 12:57:37;;;;;;;6.63;2.70;;;16.90;46.10;;;;;;5137025;27;20720;-74
2022/04/19 13:00:05;;;;;;;5.27;2.80;;;17.00;47.00;;;;;;5137256;27;20284;-74
2022/04/19 13:02:31;;;;;;;8.07;2.63;;;16.90;46.10;;;;;;5136696;27;20794;-73
2022/04/19 13:04:57;;;;;;;5.40;2.20;;;16.90;46.60;;;;;;5135950;27;20284;-74
2022/04/19 13:12:59;;;;;;;5.93;2.00;;;17.20;45.50;;;;;;5137036;27;20733;-74
2022/04/19 13:15:25;;;;;;;3.50;1.80;;;17.20;45.30;;;;;;5136904;27;20094;-74
2022/04/19 13:17:50;;;;;;;6.07;2.33;;;17.20;45.30;;;;;;5136923;27;20387;-74
2022/04/19 13:20:17;;;;;;;5.70;2.00;;;17.10;45.00;;;;;;5136539;27;20039;-74
2022/04/19 13:22:42;;;;;;;5.73;2.30;;;17.10;45.50;;;;;;5135703;27;20058;-74
2022/04/19 13:25:08;;;;;;;4.67;2.20;;;16.90;45.60;;;;;;5136734;27;20280;-74
2022/04/19 13:27:36;;;;;;;4.60;2.30;;;17.00;45.30;;;;;;5135228;27;20122;-74
2022/04/19 13:30:07;;;;;;;4.63;2.30;;;17.00;45.90;;;;;;5135391;27;20406;-74
2022/04/19 13:32:33;;;;;;;6.13;2.23;;;17.00;45.50;;;;;;5136234;27;20805;-74
2022/04/19 13:34:58;;;;;;;5.97;2.20;;;16.90;45.80;;;;;;5136617;27;20760;-74
2022/04/19 13:40:09;;;;;;;4.20;2.00;;;17.00;45.60;;;;;;5136531;27;20171;-74
2022/04/19 13:42:35;;;;;;;5.23;2.00;;;17.10;45.00;;;;;;5135946;27;20606;-74
2022/04/19 13:45:00;;;;;;;7.17;2.10;;;17.00;45.30;;;;;;5136479;27;20288;-75
2022/04/19 13:47:27;;;;;;;3.43;1.90;;;17.00;46.00;;;;;;5136317;27;20527;-74
2022/04/19 13:49:52;;;;;;;4.40;1.80;;;17.10;46.10;;;;;;5136400;27;20047;-73
2022/04/19 13:52:18;;;;;;;6.40;1.80;;;17.20;45.80;;;;;;5135966;27;20723;-74